Pagrindinis puslapis
METAR-TAF:

METAR-TAF

Oro uostai :

Montego Bėjus, Jamaika

platuma: 18-30N, ilguma: 077-55W, Aukštis: 1 m

Dabartinis oras

Ataskaita buvo paskelbta 47 minutes, ne 14:00 UTC
Vėjas 10 kt iš Rytų
Temperatūra 28°C
Drėgmė 70%
Slėgis 1015 hPa
Matomumas 10 km arba daugiau
Mažai debesys ne aukštis 2000 ft
Išsisklaidę debesys ne aukštis 3400 ft

METAR: MKJS 211400Z 10010KT 9999 FEW020 SCT034 28/22 Q1015

Laikas: 09:47 (14:47 UTC)

Prognozė

Ataskaita buvo paskelbta 3 valandos ir 32 minutes, ne 11:15 UTC
Prognozė galioja nuo 21 metu 12 UTC su 22 metu 12 UTC
Vėjas 5 kt iš Pietryčių
Matomumas 10 km arba daugiau
Mažai debesys ne aukštis 2200 ft
Tapsmas
nuo 21 metu 13 UTC su 21 metu 15 UTC
Vėjas 10 kt iš Rytų/Šiaurės Rytų
Išsisklaidę debesys ne aukštis 2000 ft
Mažai debesys ne aukštis 2200 ft, Liūtiniai kamuoliniai debesys.
Tapsmas
nuo 22 metu 00 UTC su 22 metu 02 UTC
Vėjas 2 kt nuo kintamojo kryptimis

TAF: MKJS 211115Z 2112/2212 13005KT 9999 FEW022 BECMG 2113/2115 06010KT SCT020 FEW022CB BECMG 2200/2202 VRB02KT

Orai ataskaitas ir orų prognozės (METAR, TAF).

turimą stotys yra geltonos ir raudonos taškus žemėlapyje.

Perkelti pele per norėdami pamatyti stoties vardą.

Tada spustelėkite, norėdami matyti oro stebėjimo ir prognozės.

Norėdami pakeisti žemėlapį: spustelėkite ant žalios mygtukų su juodo kryžiaus žemyn,; žalią mygtuką su brūkšneliu, jei norite nutolinti; arba žalių rodyklių gretimoms žemėlapius.


METAR-TAF: